Time;durP1;ratioP1;P1;durP2;ratioP2;P2;SDS_P1;SDS_P2;PMS_P1;PMS_P2;Temp;Humidity;BMP_temperature;BMP_pressure;BME280_temperature;BME280_humidity;BME280_pressure;Samples;Min_cycle;Max_cycle;Signal;HPM_P1;HPM_P2
2021/04/01 00:00:01;;;;;;;27.93;18.43;;;11.50;99.90;;;;;;4966648;28;20275;-50
2021/04/01 00:02:28;;;;;;;27.80;16.53;;;11.50;99.90;;;;;;4983287;28;20272;-48
2021/04/01 00:04:56;;;;;;;26.73;17.70;;;11.50;99.90;;;;;;4980967;28;20196;-48
2021/04/01 00:07:22;;;;;;;25.70;18.03;;;11.40;99.90;;;;;;4985504;28;20202;-48
2021/04/01 00:09:49;;;;;;;30.80;18.50;;;11.30;99.90;;;;;;4981554;28;20257;-53
2021/04/01 00:12:15;;;;;;;29.97;17.53;;;11.30;99.90;;;;;;4985782;28;20221;-51
2021/04/01 00:14:42;;;;;;;26.30;17.23;;;11.30;99.90;;;;;;4969280;28;20217;-53
2021/04/01 00:17:09;;;;;;;28.60;17.97;;;11.30;99.90;;;;;;4984232;28;20475;-48
2021/04/01 00:19:35;;;;;;;25.70;16.30;;;11.30;99.90;;;;;;4984617;28;20225;-51
2021/04/01 00:22:03;;;;;;;27.30;17.00;;;11.20;99.90;;;;;;4983343;28;20192;-49
2021/04/01 00:24:29;;;;;;;25.50;16.73;;;11.20;99.90;;;;;;4985537;28;20201;-53
2021/04/01 00:26:55;;;;;;;27.03;16.13;;;11.20;99.90;;;;;;4982299;28;20221;-48
2021/04/01 00:29:21;;;;;;;26.00;16.77;;;11.20;99.90;;;;;;4985244;28;20332;-51
2021/04/01 00:31:48;;;;;;;26.87;18.13;;;11.20;99.90;;;;;;4966391;28;20225;-52
2021/04/01 00:34:14;;;;;;;23.93;16.10;;;11.20;99.90;;;;;;4983344;28;20212;-47
2021/04/01 00:36:40;;;;;;;28.50;17.40;;;11.20;99.90;;;;;;4982928;28;20193;-51
2021/04/01 00:39:07;;;;;;;25.97;17.20;;;11.20;99.90;;;;;;4984985;28;20216;-47
2021/04/01 00:41:34;;;;;;;27.37;17.27;;;11.20;99.90;;;;;;4986177;28;20268;-49
2021/04/01 00:44:02;;;;;;;28.90;18.03;;;11.20;99.90;;;;;;4984587;28;20197;-49
2021/04/01 00:46:29;;;;;;;29.17;17.90;;;11.20;99.90;;;;;;4972083;28;20213;-47
2021/04/01 00:48:55;;;;;;;28.67;18.27;;;11.20;99.90;;;;;;4982450;28;20243;-46
2021/04/01 00:51:21;;;;;;;28.03;15.77;;;11.10;99.90;;;;;;4986768;28;20312;-51
2021/04/01 00:53:48;;;;;;;29.03;17.53;;;11.20;99.90;;;;;;4982888;28;20204;-50
2021/04/01 00:56:15;;;;;;;25.33;17.37;;;11.20;99.90;;;;;;4986792;28;20206;-48
2021/04/01 00:58:42;;;;;;;28.63;17.33;;;11.20;99.90;;;;;;4984153;28;21156;-49
2021/04/01 01:01:21;;;;;;;26.93;17.13;;;11.20;99.90;;;;;;4971349;28;20266;-47
2021/04/01 01:03:48;;;;;;;30.87;17.50;;;11.20;99.90;;;;;;4981950;28;20208;-48
2021/04/01 01:06:14;;;;;;;31.23;18.07;;;11.10;99.90;;;;;;4986206;28;20280;-49
2021/04/01 01:08:40;;;;;;;28.57;17.07;;;11.10;99.90;;;;;;4983762;28;20231;-49
2021/04/01 01:11:07;;;;;;;26.47;16.77;;;11.10;99.90;;;;;;4984986;28;21048;-52
2021/04/01 01:13:34;;;;;;;28.37;17.17;;;11.10;99.90;;;;;;4985727;28;20205;-51
2021/04/01 01:16:00;;;;;;;25.00;17.27;;;11.10;99.90;;;;;;4970004;28;20288;-47
2021/04/01 01:18:27;;;;;;;26.07;16.97;;;11.20;99.90;;;;;;4985874;28;20237;-50
2021/04/01 01:20:55;;;;;;;27.97;17.40;;;11.20;99.90;;;;;;4982004;28;20332;-53
2021/04/01 01:23:23;;;;;;;26.23;16.97;;;11.10;99.90;;;;;;4986204;28;20700;-46
2021/04/01 01:25:50;;;;;;;28.00;18.17;;;11.10;99.90;;;;;;4982154;28;20194;-50
2021/04/01 01:28:16;;;;;;;31.37;18.60;;;11.10;99.90;;;;;;4986278;28;20209;-48
2021/04/01 01:30:43;;;;;;;27.63;18.07;;;11.10;99.90;;;;;;4973596;28;20549;-53
2021/04/01 01:33:15;;;;;;;29.60;18.10;;;11.10;99.90;;;;;;4981097;28;20228;-49
2021/04/01 01:35:41;;;;;;;31.53;19.30;;;11.10;99.90;;;;;;4983442;28;20213;-52
2021/04/01 01:38:09;;;;;;;32.33;20.13;;;11.10;99.90;;;;;;4984334;28;20918;-47
2021/04/01 01:40:37;;;;;;;29.67;19.67;;;11.10;99.90;;;;;;4984586;28;20213;-50
2021/04/01 01:43:06;;;;;;;29.97;18.07;;;11.10;99.90;;;;;;4983766;28;20189;-51
2021/04/01 01:45:32;;;;;;;32.33;21.07;;;11.10;99.90;;;;;;4985298;28;20237;-51
2021/04/01 01:47:59;;;;;;;40.53;23.53;;;11.20;99.90;;;;;;4968040;28;20198;-49
2021/04/01 01:50:28;;;;;;;46.27;25.63;;;11.20;99.90;;;;;;4978730;28;20600;-50
2021/04/01 01:52:54;;;;;;;46.60;25.23;;;11.30;99.90;;;;;;4981818;28;20399;-51
2021/04/01 01:55:20;;;;;;;47.63;25.97;;;11.40;99.90;;;;;;4985538;28;20205;-47
2021/04/01 01:57:47;;;;;;;48.80;25.17;;;11.50;99.90;;;;;;4982302;28;20201;-52
2021/04/01 02:00:18;;;;;;;44.47;25.30;;;11.60;99.90;;;;;;4985079;28;20231;-47
2021/04/01 02:02:50;;;;;;;46.13;25.53;;;11.60;99.90;;;;;;4968247;28;20264;-50
2021/04/01 02:05:17;;;;;;;40.40;24.03;;;11.60;99.90;;;;;;4985059;28;20199;-46
2021/04/01 02:07:43;;;;;;;44.80;25.07;;;11.70;99.90;;;;;;4991027;28;20210;-53
2021/04/01 02:10:10;;;;;;;37.83;22.40;;;11.70;99.90;;;;;;4983292;28;20275;-49
2021/04/01 02:12:39;;;;;;;45.40;25.23;;;11.70;99.90;;;;;;4983193;28;20302;-51
2021/04/01 02:15:09;;;;;;;47.90;26.87;;;11.70;99.90;;;;;;4983563;28;20251;-48
2021/04/01 02:17:36;;;;;;;45.40;26.83;;;11.70;99.90;;;;;;4979205;28;20197;-47
2021/04/01 02:20:03;;;;;;;48.67;26.37;;;11.70;99.90;;;;;;4974635;28;20749;-52
2021/04/01 02:22:29;;;;;;;46.63;26.23;;;11.70;99.90;;;;;;4984703;28;20212;-50
2021/04/01 02:24:56;;;;;;;47.93;27.23;;;11.70;99.90;;;;;;4981440;28;20189;-47
2021/04/01 02:27:22;;;;;;;49.87;28.07;;;11.70;99.90;;;;;;4984996;28;20258;-47
2021/04/01 02:29:48;;;;;;;43.47;25.63;;;11.70;99.90;;;;;;4980875;28;20227;-48
2021/04/01 02:32:14;;;;;;;51.93;26.73;;;11.80;99.90;;;;;;4984884;28;20264;-50
2021/04/01 02:34:41;;;;;;;44.87;27.43;;;11.80;99.90;;;;;;4968660;28;20212;-49
2021/04/01 02:37:07;;;;;;;45.70;27.47;;;11.80;99.90;;;;;;4983003;28;20197;-48
2021/04/01 02:39:34;;;;;;;45.77;26.57;;;11.80;99.90;;;;;;4983762;28;20221;-50
2021/04/01 02:42:00;;;;;;;47.23;27.67;;;11.80;99.90;;;;;;4979311;28;20241;-48
2021/04/01 02:44:26;;;;;;;42.33;27.43;;;11.80;99.90;;;;;;4984415;28;20201;-51
2021/04/01 02:46:52;;;;;;;44.90;27.13;;;11.80;99.90;;;;;;4980732;28;20203;-47
2021/04/01 02:49:18;;;;;;;51.53;27.27;;;11.80;99.90;;;;;;4970237;28;20229;-46
2021/04/01 02:51:45;;;;;;;45.17;26.73;;;11.70;99.90;;;;;;4980013;28;20228;-51
2021/04/01 02:54:11;;;;;;;43.33;27.00;;;11.70;99.90;;;;;;4984001;28;20205;-47
2021/04/01 02:56:38;;;;;;;49.37;27.73;;;11.70;99.90;;;;;;4982720;28;20703;-48
2021/04/01 02:59:04;;;;;;;47.87;26.43;;;11.70;99.90;;;;;;4981593;28;20217;-47
2021/04/01 03:01:30;;;;;;;43.47;25.10;;;11.70;99.90;;;;;;4984042;28;20288;-53
2021/04/01 03:03:58;;;;;;;44.03;26.90;;;11.70;99.90;;;;;;4966932;28;20217;-47
2021/04/01 03:06:25;;;;;;;48.53;26.73;;;11.70;99.90;;;;;;4984328;28;20209;-47
2021/04/01 03:08:52;;;;;;;51.13;27.80;;;11.70;99.90;;;;;;4980323;28;20214;-47
2021/04/01 03:11:18;;;;;;;43.87;26.67;;;11.70;99.90;;;;;;4983442;28;20205;-46
2021/04/01 03:13:44;;;;;;;47.03;27.47;;;11.70;99.90;;;;;;4980846;28;20202;-51
2021/04/01 03:16:10;;;;;;;43.87;27.53;;;11.70;99.90;;;;;;4983713;28;20208;-48
2021/04/01 03:18:36;;;;;;;42.03;27.00;;;11.70;99.90;;;;;;4982834;28;20240;-49
2021/04/01 03:21:03;;;;;;;46.53;27.73;;;11.70;99.90;;;;;;4967359;28;20243;-50
2021/04/01 03:23:30;;;;;;;47.43;27.70;;;11.70;99.90;;;;;;4983655;28;20674;-49
2021/04/01 03:25:57;;;;;;;50.17;28.27;;;11.70;99.90;;;;;;4980159;28;20193;-50
2021/04/01 03:28:23;;;;;;;43.17;26.90;;;11.70;99.90;;;;;;4984165;28;20662;-46
2021/04/01 03:30:55;;;;;;;47.80;28.00;;;11.70;99.90;;;;;;4979808;28;20235;-49
2021/04/01 03:33:21;;;;;;;42.10;26.57;;;11.60;99.90;;;;;;4984302;28;20206;-47
2021/04/01 03:35:47;;;;;;;47.27;27.17;;;11.60;99.90;;;;;;4967961;28;20201;-53
2021/04/01 03:38:15;;;;;;;47.77;27.17;;;11.60;99.90;;;;;;4982328;28;20205;-50
2021/04/01 03:40:41;;;;;;;45.63;27.63;;;11.60;99.90;;;;;;4981035;28;20197;-50
2021/04/01 03:43:08;;;;;;;49.03;27.77;;;11.60;99.90;;;;;;4982387;28;20193;-48
2021/04/01 03:45:34;;;;;;;43.43;26.13;;;11.50;99.90;;;;;;4982959;28;20228;-48
2021/04/01 03:48:01;;;;;;;46.90;27.70;;;11.50;99.90;;;;;;4981206;28;20280;-47
2021/04/01 03:50:27;;;;;;;46.53;27.40;;;11.50;99.90;;;;;;4983593;28;20279;-51
2021/04/01 03:52:53;;;;;;;48.23;28.63;;;11.40;99.90;;;;;;4964777;28;20213;-49
2021/04/01 03:55:34;;;;;;;49.13;28.70;;;11.40;99.90;;;;;;4983900;28;20289;-49
2021/04/01 03:58:05;;;;;;;48.97;27.50;;;11.40;99.90;;;;;;4981128;28;20285;-47
2021/04/01 04:00:34;;;;;;;47.17;26.73;;;11.50;99.90;;;;;;4983143;28;20214;-51
2021/04/01 04:03:09;;;;;;;49.07;27.83;;;11.50;99.90;;;;;;4980966;28;20189;-48
2021/04/01 04:05:45;;;;;;;49.07;28.23;;;11.50;99.90;;;;;;4982377;28;20215;-49
2021/04/01 04:11:08;;;;;;;47.57;28.10;;;11.50;99.90;;;;;;4977172;28;20201;-47
2021/04/01 04:13:39;;;;;;;48.90;28.37;;;11.50;99.90;;;;;;4986157;28;20201;-50
2021/04/01 04:16:06;;;;;;;53.00;29.97;;;11.40;99.90;;;;;;4985918;28;20813;-52
2021/04/01 04:18:33;;;;;;;49.43;29.50;;;11.50;99.90;;;;;;4985231;28;20594;-52
2021/04/01 04:20:59;;;;;;;48.47;28.77;;;11.40;99.90;;;;;;4984391;28;20200;-47
2021/04/01 04:23:25;;;;;;;54.40;29.33;;;11.40;99.90;;;;;;4972657;28;20208;-52
2021/04/01 04:25:53;;;;;;;54.43;30.03;;;11.30;99.90;;;;;;4983024;28;20193;-50
2021/04/01 04:28:25;;;;;;;51.30;29.83;;;11.30;99.90;;;;;;4987161;28;20232;-47
2021/04/01 04:30:51;;;;;;;48.73;29.70;;;11.30;99.90;;;;;;4983238;28;20279;-49
2021/04/01 04:33:19;;;;;;;48.93;29.77;;;11.30;99.90;;;;;;4987363;28;20292;-51
2021/04/01 04:35:45;;;;;;;50.03;29.60;;;11.30;99.90;;;;;;4983750;28;20288;-48
2021/04/01 04:38:11;;;;;;;49.90;30.20;;;11.30;99.90;;;;;;4972384;28;20260;-47
2021/04/01 04:40:37;;;;;;;55.20;30.33;;;11.30;99.90;;;;;;4975141;28;20202;-50
2021/04/01 04:43:04;;;;;;;53.40;30.03;;;11.30;99.90;;;;;;4985622;28;20194;-50
2021/04/01 04:45:30;;;;;;;51.53;30.00;;;11.30;99.90;;;;;;4978189;28;20827;-50
2021/04/01 04:47:56;;;;;;;51.23;30.10;;;11.30;99.90;;;;;;4986803;28;20236;-50
2021/04/01 04:50:23;;;;;;;49.97;29.87;;;11.30;99.90;;;;;;4982417;28;21048;-48
2021/04/01 04:52:49;;;;;;;56.43;30.43;;;11.20;99.90;;;;;;4985368;28;20287;-47
2021/04/01 04:55:17;;;;;;;56.40;31.17;;;11.20;99.90;;;;;;4970220;28;20198;-49
2021/04/01 04:57:48;;;;;;;52.63;30.97;;;11.20;99.90;;;;;;4984230;28;20928;-47
2021/04/01 05:06:00;;;;;;;57.50;31.50;;;11.00;99.90;;;;;;4981068;28;20216;-51
2021/04/01 05:08:26;;;;;;;60.87;32.93;;;11.00;99.90;;;;;;4978581;28;20206;-50
2021/04/01 05:10:52;;;;;;;57.53;31.07;;;11.00;99.90;;;;;;4969601;28;20371;-50
2021/04/01 05:13:19;;;;;;;55.63;30.93;;;11.00;99.90;;;;;;4983002;28;20197;-50
2021/04/01 05:15:47;;;;;;;52.03;30.40;;;11.00;99.90;;;;;;4985969;28;20224;-47
2021/04/01 05:18:23;;;;;;;53.60;31.33;;;10.90;99.90;;;;;;4979655;28;20197;-49
2021/04/01 05:20:50;;;;;;;55.00;29.97;;;10.90;99.90;;;;;;4987903;28;20215;-53
2021/04/01 05:23:27;;;;;;;58.87;32.50;;;10.90;99.90;;;;;;4977290;28;21001;-49
2021/04/01 05:26:09;;;;;;;53.80;30.77;;;10.90;99.90;;;;;;4968158;28;20208;-50
2021/04/01 05:28:36;;;;;;;63.67;31.80;;;10.90;99.90;;;;;;4980931;28;20717;-50
2021/04/01 05:31:04;;;;;;;57.93;30.90;;;11.00;99.90;;;;;;4979348;28;20229;-49
2021/04/01 05:33:32;;;;;;;61.00;32.60;;;11.00;99.90;;;;;;4980651;28;20197;-49
2021/04/01 05:35:59;;;;;;;55.60;30.47;;;11.00;99.90;;;;;;4983770;28;20205;-50
2021/04/01 05:38:26;;;;;;;58.77;31.27;;;11.00;99.90;;;;;;4973574;28;20232;-47
2021/04/01 05:40:52;;;;;;;60.63;32.03;;;11.00;99.90;;;;;;4984673;28;20229;-49
2021/04/01 05:43:22;;;;;;;59.33;30.83;;;11.00;99.90;;;;;;4982291;28;20786;-48
2021/04/01 05:45:50;;;;;;;54.60;31.27;;;11.00;99.90;;;;;;4978813;28;20206;-50
2021/04/01 05:48:25;;;;;;;60.93;31.97;;;11.00;99.90;;;;;;4970351;28;22756;-48
2021/04/01 05:51:13;;;;;;;59.07;31.50;;;11.10;99.90;;;;;;4979639;28;20240;-51
2021/04/01 05:59:34;;;;;;;57.33;31.77;;;11.10;99.90;;;;;;4952791;28;20251;-47
2021/04/01 06:02:16;;;;;;;60.67;32.33;;;11.10;99.90;;;;;;4982360;28;20224;-51
2021/04/01 06:04:47;;;;;;;56.50;31.23;;;11.10;99.90;;;;;;4980068;28;20304;-50
2021/04/01 06:07:17;;;;;;;54.10;31.00;;;11.10;99.90;;;;;;4977543;28;20197;-50
2021/04/01 06:09:50;;;;;;;53.67;32.17;;;11.10;99.90;;;;;;4980238;28;20231;-47
2021/04/01 06:12:17;;;;;;;61.67;33.50;;;11.10;99.90;;;;;;4967963;28;20943;-50
2021/04/01 06:14:58;;;;;;;58.80;33.00;;;11.10;99.90;;;;;;4987860;28;20211;-50
2021/04/01 06:17:26;;;;;;;60.27;33.17;;;11.00;99.90;;;;;;4987278;28;20369;-49
2021/04/01 06:19:56;;;;;;;66.07;33.00;;;11.00;99.90;;;;;;4982684;28;20259;-50
2021/04/01 06:22:24;;;;;;;58.37;32.13;;;11.00;99.90;;;;;;4979971;28;20295;-48
2021/04/01 06:24:53;;;;;;;56.90;33.13;;;11.00;99.90;;;;;;4979672;28;20296;-53
2021/04/01 06:27:23;;;;;;;61.80;31.83;;;11.00;99.90;;;;;;4967567;28;20273;-48
2021/04/01 06:32:59;;;;;;;63.03;33.30;;;10.90;99.90;;;;;;4956342;28;20617;-52
2021/04/01 06:35:28;;;;;;;57.83;31.37;;;10.90;99.90;;;;;;4977770;28;21049;-53
2021/04/01 06:38:19;;;;;;;64.07;33.67;;;10.80;99.90;;;;;;4983494;28;20218;-49
2021/04/01 06:40:49;;;;;;;61.00;33.03;;;10.90;99.90;;;;;;4973778;28;20717;-54
2021/04/01 06:43:32;;;;;;;61.50;31.97;;;10.80;99.90;;;;;;4966942;28;20193;-50
2021/04/01 06:46:00;;;;;;;59.47;31.10;;;10.80;99.90;;;;;;4979400;28;20197;-51
2021/04/01 06:48:43;;;;;;;58.43;32.80;;;10.80;99.90;;;;;;4983505;28;20287;-50
2021/04/01 06:51:12;;;;;;;55.33;32.57;;;10.80;99.90;;;;;;4975582;28;20553;-51
2021/04/01 06:53:45;;;;;;;62.00;32.17;;;10.80;99.90;;;;;;4964296;28;20212;-51
2021/04/01 06:56:18;;;;;;;61.83;32.30;;;10.80;99.90;;;;;;4972888;28;20570;-57
2021/04/01 06:58:55;;;;;;;64.50;34.37;;;10.80;99.90;;;;;;4962786;28;20710;-54
2021/04/01 07:01:32;;;;;;;62.83;34.03;;;10.80;99.90;;;;;;4978758;28;20654;-51
2021/04/01 07:04:04;;;;;;;60.40;32.77;;;10.80;99.90;;;;;;4981431;28;20248;-52
2021/04/01 07:06:34;;;;;;;67.40;35.00;;;10.80;99.90;;;;;;4975742;28;20216;-52
2021/04/01 07:09:07;;;;;;;59.63;32.97;;;10.80;99.90;;;;;;4981688;28;20233;-52
2021/04/01 07:11:36;;;;;;;64.03;33.33;;;10.80;99.90;;;;;;4972308;28;20221;-53
2021/04/01 07:14:05;;;;;;;59.37;31.43;;;10.80;99.90;;;;;;4969157;28;20209;-51
2021/04/01 07:16:46;;;;;;;67.07;34.40;;;10.80;99.90;;;;;;4974467;28;20194;-51
2021/04/01 07:19:30;;;;;;;65.77;33.80;;;10.80;99.90;;;;;;4980523;28;20212;-56
2021/04/01 07:31:07;;;;;;;66.90;34.77;;;10.90;99.90;;;;;;4961905;28;20256;-52
2021/04/01 07:44:57;;;;;;;57.27;31.97;;;11.00;99.90;;;;;;4967475;28;20744;-52
2021/04/01 07:47:27;;;;;;;61.07;31.03;;;11.00;99.90;;;;;;4980988;28;20674;-52
2021/04/01 07:49:54;;;;;;;63.00;34.57;;;11.10;99.90;;;;;;4984548;28;20274;-55
2021/04/01 07:52:24;;;;;;;61.87;33.13;;;11.10;99.90;;;;;;4986591;28;20221;-51
2021/04/01 07:55:02;;;;;;;63.13;32.30;;;11.10;99.90;;;;;;4983758;28;20630;-56
2021/04/01 08:00:26;;;;;;;71.40;36.13;;;11.00;99.90;;;;;;4965745;28;20236;-53
2021/04/01 08:03:01;;;;;;;66.33;34.10;;;10.90;99.90;;;;;;4969486;28;20225;-55
2021/04/01 08:05:30;;;;;;;64.23;33.77;;;10.70;99.90;;;;;;4983681;28;20201;-54
2021/04/01 08:07:59;;;;;;;70.87;35.43;;;10.70;99.90;;;;;;4981103;28;20910;-55
2021/04/01 08:10:31;;;;;;;65.80;33.77;;;10.70;99.90;;;;;;4982026;28;20229;-56
2021/04/01 08:13:03;;;;;;;58.63;32.93;;;10.70;99.90;;;;;;4981281;28;20239;-52
2021/04/01 08:15:37;;;;;;;59.80;32.87;;;10.70;99.90;;;;;;4977733;28;20210;-58
2021/04/01 08:18:21;;;;;;;66.30;35.20;;;10.80;99.90;;;;;;4976840;28;20285;-53
2021/04/01 08:20:52;;;;;;;58.90;31.10;;;10.70;99.90;;;;;;4982327;28;20830;-55
2021/04/01 08:23:20;;;;;;;63.83;31.33;;;10.70;99.90;;;;;;4986441;28;20201;-51
2021/04/01 08:25:54;;;;;;;53.53;29.67;;;10.70;99.90;;;;;;4978716;28;20209;-57
2021/04/01 08:31:20;;;;;;;52.60;28.13;;;10.80;99.90;;;;;;4970951;28;20256;-53
2021/04/01 08:33:57;;;;;;;45.60;27.37;;;10.80;99.90;;;;;;4964022;28;20205;-50
2021/04/01 08:36:26;;;;;;;46.37;25.20;;;10.90;99.90;;;;;;4976824;28;20198;-57
2021/04/01 08:38:53;;;;;;;46.23;26.73;;;11.00;99.90;;;;;;4983176;28;20305;-54
2021/04/01 08:41:32;;;;;;;38.23;24.30;;;11.00;99.90;;;;;;4979445;28;20285;-57
2021/04/01 08:44:16;;;;;;;41.17;22.80;;;11.00;99.90;;;;;;4981202;28;20209;-54
2021/04/01 08:46:57;;;;;;;34.30;19.60;;;11.00;99.90;;;;;;4975975;28;20226;-58
2021/04/01 08:49:37;;;;;;;36.43;21.30;;;11.00;99.90;;;;;;4963193;28;20591;-57
2021/04/01 08:52:31;;;;;;;34.90;20.13;;;11.00;99.90;;;;;;4985976;28;20225;-57
2021/04/01 08:55:04;;;;;;;31.70;19.27;;;11.00;99.90;;;;;;4982461;28;20220;-57
2021/04/01 08:57:47;;;;;;;35.43;19.90;;;11.00;99.90;;;;;;4978177;28;20925;-52
2021/04/01 09:00:15;;;;;;;33.87;18.47;;;11.00;99.90;;;;;;4976489;28;20695;-51
2021/04/01 09:02:49;;;;;;;26.23;15.93;;;11.10;99.90;;;;;;4984049;28;20941;-54
2021/04/01 09:05:16;;;;;;;30.50;16.77;;;11.10;99.90;;;;;;4964664;28;20214;-54
2021/04/01 09:07:45;;;;;;;29.87;16.50;;;11.20;99.90;;;;;;4975287;28;20208;-50
2021/04/01 09:10:16;;;;;;;29.67;15.13;;;11.20;99.90;;;;;;4975877;28;20235;-53
2021/04/01 09:12:47;;;;;;;21.67;13.73;;;11.40;99.90;;;;;;4979397;28;20225;-54
2021/04/01 09:15:25;;;;;;;22.50;12.47;;;11.50;99.90;;;;;;4978070;28;20206;-50
2021/04/01 09:17:53;;;;;;;20.10;13.13;;;11.60;99.90;;;;;;4977980;28;20288;-49
2021/04/01 09:20:21;;;;;;;17.37;12.00;;;11.70;99.90;;;;;;4966817;28;20232;-52
2021/04/01 09:22:49;;;;;;;19.77;12.23;;;11.70;99.90;;;;;;4982153;28;20650;-49
2021/04/01 09:25:17;;;;;;;18.63;11.83;;;11.80;99.90;;;;;;4985286;28;20655;-50
2021/04/01 09:27:48;;;;;;;19.00;11.30;;;11.90;99.90;;;;;;4977199;28;20571;-51
2021/04/01 09:30:16;;;;;;;14.97;9.73;;;11.90;99.90;;;;;;4974715;28;20710;-53
2021/04/01 09:32:46;;;;;;;14.47;10.30;;;11.90;99.90;;;;;;4974659;28;20237;-52
2021/04/01 09:35:15;;;;;;;15.00;9.13;;;11.90;99.90;;;;;;4972665;28;20228;-55
2021/04/01 09:37:54;;;;;;;14.10;8.77;;;11.90;99.90;;;;;;4975573;28;20247;-55
2021/04/01 09:40:28;;;;;;;13.63;8.93;;;12.00;99.90;;;;;;4980335;28;20921;-54
2021/04/01 09:42:55;;;;;;;11.03;7.47;;;12.00;99.90;;;;;;4977628;28;20227;-54
2021/04/01 09:45:28;;;;;;;14.13;8.37;;;12.10;99.90;;;;;;4984618;28;20285;-53
2021/04/01 09:48:00;;;;;;;15.67;8.77;;;11.90;99.90;;;;;;4973040;28;20221;-54
2021/04/01 09:50:30;;;;;;;12.03;7.87;;;11.90;99.90;;;;;;4973036;28;20364;-54
2021/04/01 09:53:00;;;;;;;13.23;8.23;;;11.80;99.90;;;;;;4971633;28;20872;-57
2021/04/01 09:55:39;;;;;;;9.63;7.20;;;11.70;99.90;;;;;;4982414;28;20209;-58
2021/04/01 09:58:23;;;;;;;13.37;7.83;;;11.60;99.90;;;;;;4979810;28;20263;-55
2021/04/01 10:01:11;;;;;;;14.97;7.40;;;11.30;99.90;;;;;;4977714;28;20208;-57
2021/04/01 10:03:44;;;;;;;13.63;7.53;;;11.20;99.90;;;;;;4976231;28;20284;-59
2021/04/01 10:06:22;;;;;;;11.73;6.73;;;11.10;99.90;;;;;;4980857;28;20198;-50
2021/04/01 10:08:48;;;;;;;8.20;6.17;;;11.10;99.90;;;;;;4973908;28;20224;-54
2021/04/01 10:11:24;;;;;;;10.17;6.97;;;10.80;99.90;;;;;;4985162;28;20198;-49
2021/04/01 10:14:03;;;;;;;7.57;6.53;;;10.70;99.90;;;;;;4979146;28;20216;-56
2021/04/01 10:16:30;;;;;;;11.40;6.70;;;10.50;99.90;;;;;;4981483;28;20201;-48
2021/04/01 10:18:56;;;;;;;11.33;5.80;;;10.40;99.90;;;;;;4982018;28;20228;-52
2021/04/01 10:21:23;;;;;;;7.73;5.73;;;10.30;99.90;;;;;;4972334;28;20672;-48
2021/04/01 10:23:57;;;;;;;9.43;5.50;;;10.20;99.90;;;;;;4978279;28;20193;-55
2021/04/01 10:26:30;;;;;;;10.40;5.53;;;10.10;99.90;;;;;;4978974;28;20209;-50
2021/04/01 10:29:00;;;;;;;7.40;5.13;;;10.10;99.90;;;;;;4975356;28;20225;-51
2021/04/01 10:31:27;;;;;;;9.97;4.93;;;10.10;99.90;;;;;;5000560;28;20207;-50
2021/04/01 10:34:05;;;;;;;10.60;4.40;;;10.00;99.90;;;;;;4978360;28;20201;-51
2021/04/01 10:36:34;;;;;;;8.23;4.50;;;10.00;99.90;;;;;;4972266;28;20226;-52
2021/04/01 10:39:08;;;;;;;8.37;4.63;;;9.90;99.90;;;;;;4982077;28;20201;-49
2021/04/01 10:41:44;;;;;;;6.43;3.70;;;9.80;99.90;;;;;;4980187;28;20213;-56
2021/04/01 10:44:11;;;;;;;4.20;3.70;;;9.80;99.90;;;;;;4980899;28;20307;-53
2021/04/01 10:46:40;;;;;;;5.17;3.13;;;9.90;99.90;;;;;;4984890;28;20264;-56
2021/04/01 10:49:07;;;;;;;4.47;2.70;;;10.00;99.90;;;;;;4978921;28;20294;-51
2021/04/01 10:51:35;;;;;;;3.60;2.90;;;10.10;99.90;;;;;;4969505;28;20205;-55
2021/04/01 10:54:09;;;;;;;4.67;2.77;;;10.10;99.90;;;;;;4979965;28;20193;-53
2021/04/01 10:56:46;;;;;;;3.97;2.77;;;10.00;99.90;;;;;;4977927;28;20226;-55
2021/04/01 10:59:12;;;;;;;5.83;3.30;;;10.00;99.90;;;;;;4976579;28;20225;-54
2021/04/01 11:01:41;;;;;;;4.23;3.07;;;10.00;99.90;;;;;;4997356;28;20659;-50
2021/04/01 11:04:10;;;;;;;4.83;2.93;;;9.90;99.90;;;;;;4977455;28;20271;-54
2021/04/01 11:06:38;;;;;;;5.57;3.60;;;9.90;99.90;;;;;;4979206;28;20292;-53
2021/04/01 11:09:05;;;;;;;4.97;3.60;;;9.90;99.90;;;;;;4974337;28;20347;-53
2021/04/01 11:11:43;;;;;;;3.57;3.07;;;9.80;99.90;;;;;;4979663;28;20208;-55
2021/04/01 11:14:10;;;;;;;5.00;3.53;;;9.80;99.90;;;;;;4982436;28;20204;-54
2021/04/01 11:16:38;;;;;;;4.03;3.03;;;9.80;99.90;;;;;;4978391;28;20263;-54
2021/04/01 11:19:05;;;;;;;5.07;3.87;;;9.90;99.90;;;;;;4976721;28;20236;-51
2021/04/01 11:21:33;;;;;;;6.00;3.63;;;9.90;99.90;;;;;;4982054;28;20197;-55
2021/04/01 11:24:01;;;;;;;3.40;2.77;;;10.00;99.90;;;;;;4970034;28;20204;-50
2021/04/01 11:26:28;;;;;;;6.23;3.50;;;10.10;99.90;;;;;;4980118;28;20232;-54
2021/04/01 11:28:55;;;;;;;5.33;3.57;;;10.20;99.90;;;;;;4979573;28;20236;-48
2021/04/01 11:31:22;;;;;;;5.60;3.40;;;10.30;99.90;;;;;;4979161;28;20208;-48
2021/04/01 11:33:51;;;;;;;5.67;3.47;;;10.40;99.90;;;;;;4977776;28;20221;-54
2021/04/01 11:36:21;;;;;;;3.67;3.30;;;10.50;99.90;;;;;;4978506;28;20201;-48
2021/04/01 11:38:50;;;;;;;4.10;3.33;;;10.70;99.90;;;;;;4965724;28;20229;-53
2021/04/01 11:41:18;;;;;;;3.23;2.93;;;10.90;99.90;;;;;;4978629;28;20363;-51
2021/04/01 11:43:49;;;;;;;4.47;2.40;;;10.90;99.90;;;;;;4980231;28;20201;-52
2021/04/01 11:46:18;;;;;;;2.57;2.33;;;10.90;99.90;;;;;;4979459;28;20201;-53
2021/04/01 11:48:45;;;;;;;4.87;3.10;;;10.80;99.90;;;;;;4980651;28;20229;-53
2021/04/01 11:51:20;;;;;;;5.50;2.67;;;10.70;99.90;;;;;;4977909;28;20213;-51
2021/04/01 11:53:47;;;;;;;2.73;2.23;;;10.70;99.90;;;;;;4964545;28;20304;-54
2021/04/01 11:56:13;;;;;;;2.80;2.33;;;10.70;99.90;;;;;;4977563;28;20329;-53
2021/04/01 11:58:41;;;;;;;2.20;2.00;;;10.90;99.90;;;;;;4975665;28;20221;-53
2021/04/01 12:01:12;;;;;;;2.57;1.63;;;11.00;99.90;;;;;;4978590;28;20948;-49
2021/04/01 12:03:51;;;;;;;1.67;1.57;;;11.00;99.90;;;;;;4977502;28;20190;-54
2021/04/01 12:06:18;;;;;;;2.17;1.70;;;10.90;99.90;;;;;;4978694;28;20201;-48
2021/04/01 12:08:45;;;;;;;4.83;1.80;;;10.90;99.90;;;;;;4965654;28;20304;-53
2021/04/01 12:11:11;;;;;;;2.33;1.83;;;11.10;99.90;;;;;;4982088;28;20225;-51
2021/04/01 12:13:38;;;;;;;1.60;1.50;;;11.10;99.90;;;;;;4975489;28;20210;-54
2021/04/01 12:16:16;;;;;;;2.23;1.43;;;11.10;99.90;;;;;;4994797;28;20857;-48
2021/04/01 12:18:43;;;;;;;1.83;1.30;;;11.10;99.90;;;;;;4975331;28;20706;-54
2021/04/01 12:21:09;;;;;;;2.27;1.10;;;11.00;99.90;;;;;;4981588;28;20196;-50
2021/04/01 12:23:46;;;;;;;1.50;1.40;;;10.90;99.90;;;;;;4973284;28;20203;-54
2021/04/01 12:26:13;;;;;;;1.50;1.40;;;10.80;99.90;;;;;;4979979;28;20212;-53
2021/04/01 12:28:39;;;;;;;1.70;1.50;;;10.80;99.90;;;;;;4976779;28;20282;-54
2021/04/01 12:31:12;;;;;;;3.27;1.37;;;10.70;99.90;;;;;;4981457;28;20848;-55
2021/04/01 12:33:49;;;;;;;1.63;1.20;;;10.50;99.90;;;;;;4979629;28;20264;-54
2021/04/01 12:36:16;;;;;;;2.37;1.27;;;10.40;99.90;;;;;;4987910;28;20217;-58
2021/04/01 12:38:45;;;;;;;1.20;1.10;;;10.30;99.90;;;;;;4980473;28;20243;-57
2021/04/01 12:41:24;;;;;;;2.27;1.40;;;10.30;99.90;;;;;;4974872;28;20209;-59
2021/04/01 12:43:51;;;;;;;1.53;1.20;;;10.20;99.90;;;;;;4979739;28;20211;-58
2021/04/01 12:46:17;;;;;;;1.77;1.40;;;10.20;99.90;;;;;;4989229;28;20243;-60
2021/04/01 12:48:46;;;;;;;2.73;1.43;;;10.10;99.90;;;;;;4985886;28;20226;-58
2021/04/01 12:51:19;;;;;;;1.83;1.67;;;10.00;99.90;;;;;;4979340;28;20220;-58
2021/04/01 12:54:01;;;;;;;4.80;1.50;;;10.00;99.90;;;;;;4982495;28;20256;-54
2021/04/01 12:56:31;;;;;;;4.67;1.37;;;10.00;99.90;;;;;;4968021;28;20201;-58
2021/04/01 12:59:00;;;;;;;3.30;1.37;;;10.00;99.90;;;;;;4977954;28;20223;-59
2021/04/01 13:01:29;;;;;;;4.43;1.57;;;9.90;99.90;;;;;;4980628;28;20189;-59
2021/04/01 13:03:57;;;;;;;1.50;1.40;;;9.80;99.90;;;;;;4985156;28;20240;-59
2021/04/01 13:06:30;;;;;;;3.00;1.53;;;9.60;99.90;;;;;;4983679;28;20204;-59
2021/04/01 13:09:02;;;;;;;1.83;1.37;;;9.50;99.90;;;;;;4978984;28;20366;-56
2021/04/01 13:11:28;;;;;;;1.13;1.00;;;9.40;99.90;;;;;;4963947;28;20272;-56
2021/04/01 13:13:55;;;;;;;2.67;1.50;;;9.30;99.90;;;;;;4980618;28;20226;-54
2021/04/01 13:16:21;;;;;;;5.37;1.50;;;9.10;99.90;;;;;;4966603;28;20707;-58
2021/04/01 13:18:48;;;;;;;1.90;1.20;;;9.00;99.90;;;;;;4981890;28;20225;-59
2021/04/01 13:24:11;;;;;;;1.37;0.90;;;8.70;99.90;;;;;;4970537;28;20267;-57
2021/04/01 13:26:38;;;;;;;0.80;0.80;;;8.70;99.90;;;;;;4968380;28;20209;-58
2021/04/01 13:29:07;;;;;;;0.70;0.70;;;8.80;99.90;;;;;;4976786;28;20229;-56
2021/04/01 13:31:43;;;;;;;2.10;0.80;;;8.80;99.90;;;;;;4980773;28;20205;-58